Time;durP1;ratioP1;P1;durP2;ratioP2;P2;SDS_P1;SDS_P2;PMS_P1;PMS_P2;Temp;Humidity;BMP_temperature;BMP_pressure;BME280_temperature;BME280_humidity;BME280_pressure;Samples;Min_cycle;Max_cycle;Signal;HPM_P1;HPM_P2
2023/06/16 00:01:35;;;;;;;34.35;12.25;;;;;;;;;;5130632;28;20034;-73
2023/06/16 00:04:03;;;;;;;21.02;11.07;;;;;;;;;;5131035;28;20035;-74
2023/06/16 00:06:29;;;;;;;23.08;10.95;;;;;;;;;;5112658;28;20122;-74
2023/06/16 00:08:56;;;;;;;18.00;10.57;;;;;;;;;;5130657;28;20139;-74
2023/06/16 00:11:22;;;;;;;17.80;9.80;;;;;;;;;;5130936;28;20039;-73
2023/06/16 00:13:48;;;;;;;18.67;10.15;;;;;;;;;;5130584;28;20051;-73
2023/06/16 00:16:19;;;;;;;15.65;10.48;;;;;;;;;;5130885;28;20023;-77
2023/06/16 00:18:45;;;;;;;19.73;11.73;;;;;;;;;;5131181;28;20030;-78
2023/06/16 00:21:19;;;;;;;17.95;11.57;;;;;;;;;;5144468;28;20036;-77
2023/06/16 00:23:45;;;;;;;22.95;11.05;;;;;;;;;;5131196;28;20031;-78
2023/06/16 00:26:11;;;;;;;22.45;10.75;;;;;;;;;;5130855;28;20062;-78
2023/06/16 00:28:41;;;;;;;21.45;10.45;;;;;;;;;;5112792;27;20046;-77
2023/06/16 00:31:07;;;;;;;24.23;11.30;;;;;;;;;;5116702;27;20039;-79
2023/06/16 00:33:35;;;;;;;19.52;10.68;;;;;;;;;;5134637;27;20053;-78
2023/06/16 00:36:01;;;;;;;17.38;10.63;;;;;;;;;;5116421;27;20118;-78
2023/06/16 00:38:29;;;;;;;16.58;9.85;;;;;;;;;;5134683;27;20501;-78
2023/06/16 00:40:56;;;;;;;16.27;9.20;;;;;;;;;;5134705;27;20031;-78
2023/06/16 00:43:22;;;;;;;15.38;9.50;;;;;;;;;;5134885;27;20087;-78
2023/06/16 00:45:49;;;;;;;16.98;9.43;;;;;;;;;;5134501;27;20031;-76
2023/06/16 00:48:15;;;;;;;26.58;10.32;;;;;;;;;;5116549;27;20039;-78
2023/06/16 00:50:42;;;;;;;21.98;9.73;;;;;;;;;;5134698;27;20076;-80
2023/06/16 00:53:08;;;;;;;15.57;9.88;;;;;;;;;;5116825;27;20039;-79
2023/06/16 00:55:34;;;;;;;19.92;11.45;;;;;;;;;;5126472;27;20038;-79
2023/06/16 00:58:00;;;;;;;23.73;11.88;;;;;;;;;;5128957;27;20114;-79
2023/06/16 01:00:27;;;;;;;32.80;12.25;;;;;;;;;;5121463;27;20027;-79
2023/06/16 01:02:55;;;;;;;21.98;11.43;;;;;;;;;;5134290;27;20063;-79
2023/06/16 01:05:23;;;;;;;20.48;11.20;;;;;;;;;;5134069;27;20039;-78
2023/06/16 01:07:59;;;;;;;18.80;11.35;;;;;;;;;;5115808;27;20035;-78
2023/06/16 01:10:28;;;;;;;21.65;11.95;;;;;;;;;;5116080;27;20103;-77
2023/06/16 01:13:00;;;;;;;27.17;12.38;;;;;;;;;;5134041;27;20520;-76
2023/06/16 01:15:28;;;;;;;19.95;11.20;;;;;;;;;;5116284;27;20031;-77
2023/06/16 01:17:56;;;;;;;17.92;10.50;;;;;;;;;;5115586;27;20459;-77
2023/06/16 01:20:28;;;;;;;17.92;10.25;;;;;;;;;;5098689;27;20092;-76
2023/06/16 01:22:53;;;;;;;20.90;11.75;;;;;;;;;;5115435;27;20062;-77
2023/06/16 01:25:23;;;;;;;32.85;11.48;;;;;;;;;;5133719;27;20019;-77
2023/06/16 01:27:52;;;;;;;30.50;11.90;;;;;;;;;;5115386;27;20131;-78
2023/06/16 01:30:22;;;;;;;21.35;13.30;;;;;;;;;;5098478;27;20058;-78
2023/06/16 01:32:52;;;;;;;24.30;12.68;;;;;;;;;;5081301;27;20501;-77
2023/06/16 01:35:20;;;;;;;29.23;11.65;;;;;;;;;;5115176;27;20392;-78
2023/06/16 01:37:46;;;;;;;17.75;10.93;;;;;;;;;;5115287;27;20031;-79
2023/06/16 01:40:12;;;;;;;16.75;10.23;;;;;;;;;;5115265;27;20027;-77
2023/06/16 01:42:39;;;;;;;21.10;11.52;;;;;;;;;;5114905;27;20043;-77
2023/06/16 01:45:05;;;;;;;16.20;10.90;;;;;;;;;;5115262;27;20102;-78
2023/06/16 01:47:31;;;;;;;24.63;12.30;;;;;;;;;;5133357;27;20039;-79
2023/06/16 01:49:57;;;;;;;23.75;11.32;;;;;;;;;;5115199;27;20027;-78
2023/06/16 01:52:23;;;;;;;40.03;13.00;;;;;;;;;;5114986;27;20042;-78
2023/06/16 01:54:49;;;;;;;20.73;11.55;;;;;;;;;;5114774;27;20042;-79
2023/06/16 01:57:15;;;;;;;19.13;10.82;;;;;;;;;;5114793;27;20035;-78
2023/06/16 01:59:41;;;;;;;17.90;11.02;;;;;;;;;;5097821;27;20035;-77
2023/06/16 02:02:10;;;;;;;19.63;10.93;;;;;;;;;;5114853;27;20041;-78
2023/06/16 02:04:36;;;;;;;24.58;12.30;;;;;;;;;;5097794;27;20070;-76
2023/06/16 02:07:21;;;;;;;25.88;11.75;;;;;;;;;;5115176;27;20073;-77
2023/06/16 02:09:47;;;;;;;32.22;11.90;;;;;;;;;;5118334;27;20061;-78
2023/06/16 02:12:13;;;;;;;25.08;11.55;;;;;;;;;;5133514;27;20031;-77
2023/06/16 02:14:40;;;;;;;24.92;12.15;;;;;;;;;;5115268;27;20096;-78
2023/06/16 02:17:07;;;;;;;21.58;11.55;;;;;;;;;;5133140;27;20034;-77
2023/06/16 02:19:33;;;;;;;27.80;11.90;;;;;;;;;;5080926;27;20130;-77
2023/06/16 02:22:00;;;;;;;31.98;11.82;;;;;;;;;;5133117;27;20103;-78
2023/06/16 02:24:26;;;;;;;21.90;11.25;;;;;;;;;;5097600;27;20378;-78
2023/06/16 02:26:53;;;;;;;15.85;10.52;;;;;;;;;;5132703;27;20031;-78
2023/06/16 02:29:19;;;;;;;22.73;11.52;;;;;;;;;;5115129;27;20122;-75
2023/06/16 02:31:45;;;;;;;21.70;11.15;;;;;;;;;;5114255;27;20156;-77
2023/06/16 02:34:13;;;;;;;20.63;11.00;;;;;;;;;;5132538;27;20043;-78
2023/06/16 02:36:39;;;;;;;20.42;10.60;;;;;;;;;;5113900;27;20127;-80
2023/06/16 02:39:04;;;;;;;23.40;11.13;;;;;;;;;;5097363;27;20077;-78
2023/06/16 02:41:31;;;;;;;13.63;10.25;;;;;;;;;;5132192;27;20048;-77
2023/06/16 02:43:57;;;;;;;19.23;10.10;;;;;;;;;;5113945;27;20428;-76
2023/06/16 02:46:23;;;;;;;13.68;8.55;;;;;;;;;;5114038;27;20031;-77
2023/06/16 02:48:49;;;;;;;13.82;9.15;;;;;;;;;;5132203;27;20034;-76
2023/06/16 02:51:16;;;;;;;18.10;10.55;;;;;;;;;;5113640;27;20558;-77
2023/06/16 02:53:45;;;;;;;15.32;10.75;;;;;;;;;;5113312;27;20130;-78
2023/06/16 02:56:12;;;;;;;;;;;;;;;;;;5114467;27;20114;-77
2023/06/16 02:58:38;;;;;;;30.40;11.85;;;;;;;;;;5113549;27;20013;-78
2023/06/16 03:01:04;;;;;;;24.73;11.70;;;;;;;;;;5113863;27;20045;-79
2023/06/16 03:03:37;;;;;;;29.05;12.20;;;;;;;;;;5113577;27;20099;-79
2023/06/16 03:06:39;;;;;;;27.67;14.30;;;;;;;;;;5105618;27;20027;-79
2023/06/16 03:09:17;;;;;;;27.80;12.50;;;;;;;;;;5113702;27;20051;-78
2023/06/16 03:11:43;;;;;;;25.65;14.25;;;;;;;;;;5113492;27;20035;-77
2023/06/16 03:14:10;;;;;;;33.30;14.77;;;;;;;;;;5113534;27;20462;-78
2023/06/16 03:16:36;;;;;;;31.58;14.73;;;;;;;;;;5113352;27;20413;-78
2023/06/16 03:19:02;;;;;;;22.25;14.55;;;;;;;;;;5096530;27;20042;-78
2023/06/16 03:21:28;;;;;;;17.95;12.80;;;;;;;;;;5113498;27;20034;-78
2023/06/16 03:23:55;;;;;;;23.55;14.25;;;;;;;;;;5113592;27;20054;-79
2023/06/16 03:26:22;;;;;;;27.35;13.60;;;;;;;;;;5132004;27;20084;-78
2023/06/16 03:29:14;;;;;;;23.38;13.77;;;;;;;;;;5092334;27;20071;-79
2023/06/16 03:31:41;;;;;;;25.65;13.73;;;;;;;;;;5113216;27;20530;-79
2023/06/16 03:34:11;;;;;;;37.92;14.25;;;;;;;;;;5113271;27;20412;-78
2023/06/16 03:36:39;;;;;;;25.85;13.88;;;;;;;;;;5112124;27;20114;-75
2023/06/16 03:39:06;;;;;;;33.67;14.55;;;;;;;;;;5113210;27;20035;-75
2023/06/16 03:41:33;;;;;;;29.08;13.77;;;;;;;;;;5110443;27;20023;-77
2023/06/16 03:43:59;;;;;;;34.72;14.43;;;;;;;;;;5096287;27;20027;-78
2023/06/16 03:46:28;;;;;;;27.30;13.98;;;;;;;;;;5096536;27;20074;-78
2023/06/16 03:48:55;;;;;;;30.55;14.23;;;;;;;;;;5113189;27;20038;-77
2023/06/16 03:51:21;;;;;;;27.15;13.20;;;;;;;;;;5112169;27;20035;-77
2023/06/16 03:53:47;;;;;;;24.75;13.45;;;;;;;;;;5132434;27;20047;-76
2023/06/16 03:56:13;;;;;;;33.10;13.50;;;;;;;;;;5141079;27;20038;-76
2023/06/16 03:58:39;;;;;;;25.50;13.57;;;;;;;;;;5118815;27;20509;-78
2023/06/16 04:01:06;;;;;;;25.52;12.10;;;;;;;;;;5112891;28;20137;-76
2023/06/16 04:03:32;;;;;;;30.73;11.55;;;;;;;;;;5113010;27;20528;-77
2023/06/16 04:05:58;;;;;;;17.55;10.73;;;;;;;;;;5116719;27;20027;-78
2023/06/16 04:08:25;;;;;;;21.25;10.88;;;;;;;;;;5135288;27;20039;-76
2023/06/16 04:10:57;;;;;;;28.70;11.55;;;;;;;;;;5116384;27;20051;-77
2023/06/16 04:13:24;;;;;;;14.07;9.70;;;;;;;;;;5116822;27;20047;-77
2023/06/16 04:15:50;;;;;;;12.82;9.82;;;;;;;;;;5134783;27;20035;-76
2023/06/16 04:18:17;;;;;;;19.58;10.88;;;;;;;;;;5112684;27;20037;-77
2023/06/16 04:20:43;;;;;;;24.08;12.20;;;;;;;;;;5084046;27;20038;-78
2023/06/16 04:23:09;;;;;;;21.13;10.25;;;;;;;;;;5082544;27;20069;-76
2023/06/16 04:25:37;;;;;;;20.13;10.55;;;;;;;;;;5099156;27;20035;-76
2023/06/16 04:28:04;;;;;;;12.98;8.38;;;;;;;;;;5096587;27;20126;-77
2023/06/16 04:30:33;;;;;;;22.20;10.10;;;;;;;;;;5116759;27;20034;-75
2023/06/16 04:33:01;;;;;;;21.48;10.75;;;;;;;;;;5115817;27;20071;-76
2023/06/16 04:35:34;;;;;;;19.42;10.38;;;;;;;;;;5116226;27;20023;-76
2023/06/16 04:38:02;;;;;;;22.63;11.63;;;;;;;;;;5093678;28;20132;-77
2023/06/16 04:40:32;;;;;;;21.55;10.73;;;;;;;;;;5095906;28;20506;-77
2023/06/16 04:42:58;;;;;;;19.08;10.77;;;;;;;;;;5079301;28;20046;-77
2023/06/16 04:45:24;;;;;;;13.95;9.32;;;;;;;;;;5063065;28;20405;-77
2023/06/16 04:47:52;;;;;;;14.73;9.10;;;;;;;;;;5097234;28;20156;-77
2023/06/16 04:50:18;;;;;;;19.23;8.70;;;;;;;;;;5114871;27;20028;-74
2023/06/16 04:52:45;;;;;;;22.15;9.52;;;;;;;;;;5107519;27;20043;-74
2023/06/16 04:55:11;;;;;;;13.35;8.93;;;;;;;;;;5097068;27;20038;-74
2023/06/16 04:57:37;;;;;;;15.45;8.65;;;;;;;;;;5133508;27;20035;-73
2023/06/16 05:00:06;;;;;;;15.57;8.60;;;;;;;;;;5133921;27;20405;-73
2023/06/16 05:02:34;;;;;;;13.88;8.10;;;;;;;;;;5116063;27;20106;-74
2023/06/16 05:05:00;;;;;;;12.90;7.68;;;;;;;;;;5077915;28;20092;-77
2023/06/16 05:07:27;;;;;;;17.17;7.07;;;;;;;;;;5125338;27;20027;-75
2023/06/16 05:09:53;;;;;;;13.55;7.57;;;;;;;;;;5097383;28;20055;-74
2023/06/16 05:12:19;;;;;;;12.68;8.15;;;;;;;;;;5101108;27;20050;-76
2023/06/16 05:14:45;;;;;;;10.50;7.53;;;;;;;;;;5111403;27;20497;-73
2023/06/16 05:17:11;;;;;;;16.25;7.65;;;;;;;;;;5117034;27;20038;-77
2023/06/16 05:19:37;;;;;;;14.80;6.22;;;;;;;;;;5095825;27;20039;-76
2023/06/16 05:22:03;;;;;;;10.95;6.40;;;;;;;;;;5126783;27;20031;-75
2023/06/16 05:24:31;;;;;;;8.30;5.93;;;;;;;;;;5117168;27;20560;-74
2023/06/16 05:26:58;;;;;;;7.65;6.18;;;;;;;;;;5114315;27;20519;-74
2023/06/16 05:29:25;;;;;;;11.70;6.97;;;;;;;;;;5109983;27;20027;-76
2023/06/16 05:31:51;;;;;;;11.25;6.63;;;;;;;;;;5129715;27;20032;-75
2023/06/16 05:34:17;;;;;;;7.50;5.82;;;;;;;;;;5106429;27;20046;-78
2023/06/16 05:36:44;;;;;;;7.78;6.28;;;;;;;;;;5139302;27;20065;-78
2023/06/16 05:39:14;;;;;;;13.82;6.25;;;;;;;;;;5123342;27;20043;-82
2023/06/16 05:41:40;;;;;;;9.88;5.85;;;;;;;;;;5117678;27;20035;-80
2023/06/16 05:44:07;;;;;;;5.93;5.28;;;;;;;;;;5099552;28;20038;-81
2023/06/16 05:46:33;;;;;;;7.18;5.88;;;;;;;;;;5115708;27;20054;-80
2023/06/16 05:48:59;;;;;;;9.60;5.65;;;;;;;;;;5133473;27;20059;-82
2023/06/16 05:51:26;;;;;;;7.28;5.30;;;;;;;;;;5090153;27;20118;-78
2023/06/16 05:53:53;;;;;;;10.35;5.63;;;;;;;;;;5109151;27;20133;-79
2023/06/16 05:56:20;;;;;;;12.98;5.30;;;;;;;;;;5113072;27;20043;-79
2023/06/16 05:58:46;;;;;;;6.68;5.90;;;;;;;;;;5109287;27;20023;-78
2023/06/16 06:01:14;;;;;;;6.47;5.97;;;;;;;;;;5094934;27;20038;-78
2023/06/16 06:03:45;;;;;;;12.38;6.00;;;;;;;;;;5114245;27;20118;-79
2023/06/16 06:06:12;;;;;;;10.60;5.55;;;;;;;;;;5114105;27;20030;-77
2023/06/16 06:08:39;;;;;;;11.35;6.03;;;;;;;;;;5114243;27;20470;-79
2023/06/16 06:11:08;;;;;;;9.98;5.88;;;;;;;;;;5113613;27;20047;-79
2023/06/16 06:13:34;;;;;;;7.55;6.57;;;;;;;;;;5113914;27;20523;-80
2023/06/16 06:16:00;;;;;;;13.18;6.28;;;;;;;;;;5097367;27;20500;-79
2023/06/16 06:18:27;;;;;;;11.57;6.18;;;;;;;;;;5114444;27;20043;-78
2023/06/16 06:20:53;;;;;;;12.40;6.65;;;;;;;;;;5132997;27;20484;-78
2023/06/16 06:23:19;;;;;;;15.52;6.90;;;;;;;;;;5114497;27;20123;-79
2023/06/16 06:25:47;;;;;;;8.68;7.10;;;;;;;;;;5114562;27;20409;-77
2023/06/16 06:28:18;;;;;;;7.57;6.43;;;;;;;;;;5114280;27;20402;-84
2023/06/16 06:30:44;;;;;;;7.70;6.10;;;;;;;;;;5122578;27;20063;-87
2023/06/16 06:33:10;;;;;;;13.38;6.13;;;;;;;;;;5118396;27;20047;-83
2023/06/16 06:35:37;;;;;;;14.13;6.55;;;;;;;;;;5117780;27;20027;-82
2023/06/16 06:38:04;;;;;;;11.82;5.45;;;;;;;;;;5116579;27;20043;-82
2023/06/16 06:40:32;;;;;;;6.85;6.00;;;;;;;;;;5104771;27;20096;-83
2023/06/16 06:43:00;;;;;;;7.20;5.45;;;;;;;;;;5122048;27;20060;-82
2023/06/16 06:45:36;;;;;;;9.27;6.38;;;;;;;;;;5133592;27;20142;-80
2023/06/16 06:48:02;;;;;;;11.68;5.50;;;;;;;;;;5128374;27;20165;-79
2023/06/16 06:50:28;;;;;;;6.25;5.43;;;;;;;;;;5133004;27;20008;-81
2023/06/16 06:52:55;;;;;;;8.52;5.38;;;;;;;;;;5145624;27;20039;-78
2023/06/16 06:55:21;;;;;;;7.75;6.20;;;;;;;;;;5147977;27;20057;-80
2023/06/16 06:57:49;;;;;;;9.45;5.13;;;;;;;;;;5147732;27;20516;-82
2023/06/16 07:00:15;;;;;;;5.53;5.03;;;;;;;;;;5123839;27;20090;-81
2023/06/16 07:02:41;;;;;;;9.70;5.55;;;;;;;;;;5142826;27;20035;-81
2023/06/16 07:05:08;;;;;;;10.25;5.65;;;;;;;;;;5140388;27;20416;-80
2023/06/16 07:07:34;;;;;;;6.40;5.22;;;;;;;;;;5136940;27;20410;-81
2023/06/16 07:10:00;;;;;;;6.57;5.40;;;;;;;;;;5136715;27;20055;-82
2023/06/16 07:12:26;;;;;;;5.38;4.88;;;;;;;;;;5118426;27;20130;-80
2023/06/16 07:14:52;;;;;;;5.38;4.97;;;;;;;;;;5118366;27;20039;-81
2023/06/16 07:17:18;;;;;;;7.65;5.13;;;;;;;;;;5120570;27;20039;-81
2023/06/16 07:19:44;;;;;;;5.40;4.90;;;;;;;;;;5118459;27;20031;-81
2023/06/16 07:22:10;;;;;;;6.22;4.93;;;;;;;;;;5116202;27;20592;-79
2023/06/16 07:24:36;;;;;;;6.68;5.00;;;;;;;;;;5135753;27;20030;-79
2023/06/16 07:27:03;;;;;;;8.23;5.13;;;;;;;;;;5116967;27;20031;-80
2023/06/16 07:29:29;;;;;;;6.03;4.70;;;;;;;;;;5116163;27;20413;-80
2023/06/16 07:31:55;;;;;;;5.68;5.18;;;;;;;;;;5141399;27;20035;-79
2023/06/16 07:34:21;;;;;;;5.45;4.72;;;;;;;;;;5119706;27;20131;-82
2023/06/16 07:36:47;;;;;;;5.97;5.40;;;;;;;;;;5132022;27;20414;-80
2023/06/16 07:39:13;;;;;;;5.10;4.68;;;;;;;;;;5131669;27;20046;-81
2023/06/16 07:41:39;;;;;;;5.35;4.63;;;;;;;;;;5131404;27;20035;-81
2023/06/16 07:44:05;;;;;;;8.32;4.72;;;;;;;;;;5131693;27;20556;-81
2023/06/16 07:46:34;;;;;;;5.25;4.85;;;;;;;;;;5113378;27;20039;-82
2023/06/16 07:49:00;;;;;;;6.45;4.90;;;;;;;;;;5113940;27;20039;-82
2023/06/16 07:51:26;;;;;;;5.40;5.00;;;;;;;;;;5131949;27;20039;-84
2023/06/16 07:53:53;;;;;;;5.45;5.00;;;;;;;;;;5132836;27;20039;-83
2023/06/16 07:56:19;;;;;;;5.05;4.68;;;;;;;;;;5115414;27;20496;-84
2023/06/16 07:58:45;;;;;;;5.30;4.85;;;;;;;;;;5114811;27;20038;-83
2023/06/16 08:01:11;;;;;;;6.68;4.95;;;;;;;;;;5114909;28;20161;-84
2023/06/16 08:03:37;;;;;;;5.95;5.25;;;;;;;;;;5133092;27;20038;-84
2023/06/16 08:06:03;;;;;;;4.63;4.22;;;;;;;;;;5132749;27;20046;-84
2023/06/16 08:08:32;;;;;;;10.30;5.10;;;;;;;;;;5133635;27;20041;-84
2023/06/16 08:10:59;;;;;;;5.03;4.63;;;;;;;;;;5136883;27;20142;-84
2023/06/16 08:13:25;;;;;;;5.40;5.00;;;;;;;;;;5132515;27;20508;-84
2023/06/16 08:15:51;;;;;;;6.05;4.95;;;;;;;;;;5134752;27;20039;-85
2023/06/16 08:18:18;;;;;;;5.85;5.35;;;;;;;;;;5135303;27;20061;-82
2023/06/16 08:20:45;;;;;;;8.15;6.00;;;;;;;;;;5135097;27;20398;-84
2023/06/16 08:23:11;;;;;;;6.00;5.50;;;;;;;;;;5115111;27;20039;-78
2023/06/16 08:25:37;;;;;;;10.40;5.03;;;;;;;;;;5130764;27;20028;-78
2023/06/16 08:28:05;;;;;;;5.45;5.05;;;;;;;;;;5130475;27;20278;-78
2023/06/16 08:30:31;;;;;;;5.85;5.40;;;;;;;;;;5130679;27;20038;-77
2023/06/16 08:32:57;;;;;;;11.32;6.95;;;;;;;;;;5112086;27;20074;-78
2023/06/16 08:35:23;;;;;;;7.13;6.40;;;;;;;;;;5130660;27;20061;-79
2023/06/16 08:37:50;;;;;;;8.85;5.60;;;;;;;;;;5130598;27;20050;-78
2023/06/16 08:40:16;;;;;;;6.10;5.60;;;;;;;;;;5130538;27;20161;-78
2023/06/16 08:42:42;;;;;;;7.15;6.45;;;;;;;;;;5130457;27;20043;-77
2023/06/16 08:45:09;;;;;;;6.07;5.50;;;;;;;;;;5111878;28;20035;-77
2023/06/16 08:47:39;;;;;;;8.35;5.70;;;;;;;;;;5130350;27;20556;-77
2023/06/16 08:50:08;;;;;;;5.67;5.13;;;;;;;;;;5112950;27;20061;-78
2023/06/16 08:52:34;;;;;;;6.70;6.00;;;;;;;;;;5134251;27;20058;-77
2023/06/16 08:55:01;;;;;;;6.13;5.45;;;;;;;;;;5134273;27;20069;-78
2023/06/16 08:57:30;;;;;;;6.05;5.50;;;;;;;;;;5134248;27;20443;-78
2023/06/16 08:59:56;;;;;;;6.22;5.47;;;;;;;;;;5099026;27;20049;-77
2023/06/16 09:02:23;;;;;;;5.55;5.15;;;;;;;;;;5115763;27;20031;-77
2023/06/16 09:04:50;;;;;;;9.10;5.10;;;;;;;;;;5134530;27;20031;-77
2023/06/16 09:07:19;;;;;;;4.97;4.65;;;;;;;;;;5133871;27;20039;-78
2023/06/16 09:09:45;;;;;;;12.93;5.30;;;;;;;;;;5134388;27;20070;-77
2023/06/16 09:12:12;;;;;;;5.07;4.78;;;;;;;;;;5133875;27;20570;-77
2023/06/16 09:14:39;;;;;;;6.80;5.53;;;;;;;;;;5134144;27;20050;-78
2023/06/16 09:17:05;;;;;;;8.38;5.40;;;;;;;;;;5133706;27;20126;-76
2023/06/16 09:19:34;;;;;;;5.60;5.10;;;;;;;;;;5137623;27;20055;-78
2023/06/16 09:22:01;;;;;;;5.85;5.20;;;;;;;;;;5134672;27;20027;-77
2023/06/16 09:24:27;;;;;;;6.18;4.50;;;;;;;;;;5133958;27;20023;-78
2023/06/16 09:26:57;;;;;;;5.65;5.05;;;;;;;;;;5133662;27;20031;-78
2023/06/16 09:29:23;;;;;;;;;;;;;;;;;;5115573;27;20386;-78
2023/06/16 09:31:49;;;;;;;5.63;5.13;;;;;;;;;;5114931;27;20377;-79
2023/06/16 09:34:15;;;;;;;6.93;4.90;;;;;;;;;;5115214;27;20062;-78
2023/06/16 09:36:41;;;;;;;9.55;4.72;;;;;;;;;;5114878;27;20180;-78
2023/06/16 09:39:21;;;;;;;6.45;5.32;;;;;;;;;;5133327;27;20039;-78
2023/06/16 09:41:47;;;;;;;;;;;;;;;;;;5133911;27;20074;-77
2023/06/16 09:44:13;;;;;;;5.00;4.70;;;;;;;;;;5114845;27;19995;-77
2023/06/16 09:46:40;;;;;;;5.35;4.95;;;;;;;;;;5133577;27;20066;-79
2023/06/16 09:49:06;;;;;;;5.22;4.82;;;;;;;;;;5115391;27;20119;-77
2023/06/16 09:51:32;;;;;;;6.30;5.78;;;;;;;;;;5116815;27;20055;-78
2023/06/16 09:53:58;;;;;;;5.85;5.40;;;;;;;;;;5137500;27;20147;-80
2023/06/16 09:56:25;;;;;;;10.73;5.88;;;;;;;;;;5108119;27;20060;-76
2023/06/16 09:58:51;;;;;;;7.03;5.50;;;;;;;;;;5144945;27;20035;-81
2023/06/16 10:01:17;;;;;;;6.43;5.63;;;;;;;;;;5136475;27;20488;-78
2023/06/16 10:03:44;;;;;;;8.35;5.63;;;;;;;;;;5132840;27;20035;-79
2023/06/16 10:06:18;;;;;;;5.95;5.43;;;;;;;;;;5114627;27;20557;-80
2023/06/16 10:08:44;;;;;;;6.03;5.25;;;;;;;;;;5132430;27;20039;-77
2023/06/16 10:11:10;;;;;;;7.13;5.55;;;;;;;;;;5114560;27;20062;-78
2023/06/16 10:13:36;;;;;;;7.68;5.13;;;;;;;;;;5132767;27;20095;-77
2023/06/16 10:16:03;;;;;;;5.63;5.13;;;;;;;;;;5114595;27;20497;-79
2023/06/16 10:18:29;;;;;;;7.75;5.00;;;;;;;;;;5133620;27;20030;-78
2023/06/16 10:20:55;;;;;;;5.78;5.28;;;;;;;;;;5133001;27;20408;-76
2023/06/16 10:23:21;;;;;;;5.68;5.07;;;;;;;;;;5098563;27;20035;-79
2023/06/16 10:25:47;;;;;;;5.45;4.82;;;;;;;;;;5134132;27;20038;-77
2023/06/16 10:28:14;;;;;;;5.95;5.43;;;;;;;;;;5114603;27;20183;-77
2023/06/16 10:30:40;;;;;;;7.40;5.60;;;;;;;;;;5133143;27;20501;-77
2023/06/16 10:33:17;;;;;;;5.25;4.95;;;;;;;;;;5114592;27;20042;-77
2023/06/16 10:35:50;;;;;;;5.60;5.20;;;;;;;;;;5114678;27;20038;-78
2023/06/16 10:38:16;;;;;;;5.90;5.40;;;;;;;;;;5132752;27;20410;-78
2023/06/16 10:40:44;;;;;;;9.05;5.43;;;;;;;;;;5133189;27;20030;-76
2023/06/16 10:43:18;;;;;;;6.18;5.13;;;;;;;;;;5132395;27;20071;-77
2023/06/16 10:45:45;;;;;;;5.63;5.13;;;;;;;;;;5115222;27;20059;-78
2023/06/16 10:48:11;;;;;;;6.13;5.55;;;;;;;;;;5114138;27;20417;-78
2023/06/16 10:50:43;;;;;;;5.43;5.05;;;;;;;;;;5132186;27;20046;-78
2023/06/16 10:53:10;;;;;;;6.50;5.50;;;;;;;;;;5132020;27;20066;-77
2023/06/16 10:55:39;;;;;;;5.90;5.40;;;;;;;;;;5099055;27;20088;-76
2023/06/16 10:58:18;;;;;;;9.10;5.95;;;;;;;;;;5135658;27;20035;-77
2023/06/16 11:01:05;;;;;;;7.00;5.45;;;;;;;;;;5133267;27;20027;-76
2023/06/16 11:03:35;;;;;;;6.10;5.32;;;;;;;;;;5132488;27;20505;-77
2023/06/16 11:06:01;;;;;;;5.93;5.53;;;;;;;;;;5134262;27;20039;-78
2023/06/16 11:08:28;;;;;;;6.03;5.47;;;;;;;;;;5134276;27;20027;-78
2023/06/16 11:10:58;;;;;;;5.80;5.40;;;;;;;;;;5132702;27;20051;-78
2023/06/16 11:13:29;;;;;;;5.95;5.45;;;;;;;;;;5113304;27;20118;-77
2023/06/16 11:15:55;;;;;;;5.78;5.28;;;;;;;;;;5131758;27;20057;-78
2023/06/16 11:18:25;;;;;;;6.10;5.10;;;;;;;;;;5131376;27;20464;-77
2023/06/16 11:21:00;;;;;;;5.63;5.03;;;;;;;;;;5132578;27;20098;-79
2023/06/16 11:23:26;;;;;;;9.85;5.22;;;;;;;;;;5079699;27;20043;-77
2023/06/16 11:26:08;;;;;;;7.75;5.38;;;;;;;;;;5131493;27;20023;-76
2023/06/16 11:28:37;;;;;;;5.28;4.88;;;;;;;;;;5131608;27;20035;-78
2023/06/16 11:31:05;;;;;;;8.98;5.20;;;;;;;;;;5131762;27;20027;-77
2023/06/16 11:33:32;;;;;;;5.72;5.07;;;;;;;;;;5131038;27;20056;-77
2023/06/16 11:36:17;;;;;;;5.57;5.07;;;;;;;;;;5131289;27;20080;-79
2023/06/16 11:38:44;;;;;;;8.00;5.55;;;;;;;;;;5131217;27;20046;-77
2023/06/16 11:41:16;;;;;;;5.60;5.20;;;;;;;;;;5131009;27;20084;-77
2023/06/16 11:43:43;;;;;;;11.45;5.60;;;;;;;;;;5131776;27;20039;-78
2023/06/16 11:46:09;;;;;;;5.80;5.30;;;;;;;;;;5130938;27;20079;-75
2023/06/16 11:48:36;;;;;;;5.60;5.10;;;;;;;;;;5130948;27;20073;-78
2023/06/16 11:51:02;;;;;;;7.38;5.45;;;;;;;;;;5112976;27;20039;-77
2023/06/16 11:53:28;;;;;;;6.00;5.38;;;;;;;;;;5112453;27;20054;-77
2023/06/16 11:55:53;;;;;;;6.05;5.28;;;;;;;;;;5112475;27;20464;-78
2023/06/16 11:58:21;;;;;;;8.27;5.72;;;;;;;;;;5130788;27;20046;-76
2023/06/16 12:00:47;;;;;;;6.88;5.50;;;;;;;;;;5130890;27;20035;-77
2023/06/16 12:03:13;;;;;;;19.98;6.35;;;;;;;;;;5130666;27;20043;-77
2023/06/16 12:05:41;;;;;;;8.88;5.03;;;;;;;;;;5130890;27;20042;-78
2023/06/16 12:08:07;;;;;;;5.60;5.20;;;;;;;;;;5112899;27;20445;-78
2023/06/16 12:10:33;;;;;;;5.65;4.90;;;;;;;;;;5130248;27;20057;-77
2023/06/16 12:12:59;;;;;;;5.90;5.38;;;;;;;;;;5130685;27;20424;-77
2023/06/16 12:15:25;;;;;;;5.40;5.00;;;;;;;;;;5130698;27;20124;-78
2023/06/16 12:17:53;;;;;;;6.10;5.15;;;;;;;;;;5095790;27;20050;-81
2023/06/16 12:20:20;;;;;;;7.75;5.60;;;;;;;;;;5130686;27;20444;-81
2023/06/16 12:22:46;;;;;;;5.50;4.93;;;;;;;;;;5112365;28;20039;-78
2023/06/16 12:25:14;;;;;;;5.43;5.03;;;;;;;;;;5113982;27;20039;-79
2023/06/16 12:27:43;;;;;;;11.73;5.07;;;;;;;;;;5135191;27;20035;-81
2023/06/16 12:30:09;;;;;;;10.15;5.53;;;;;;;;;;5116802;27;20394;-81
2023/06/16 12:32:36;;;;;;;7.22;5.07;;;;;;;;;;5134676;27;20031;-80
2023/06/16 12:35:02;;;;;;;11.88;5.43;;;;;;;;;;5134968;27;20108;-81
2023/06/16 12:37:31;;;;;;;7.55;5.13;;;;;;;;;;5134883;27;20031;-80
2023/06/16 12:39:58;;;;;;;6.25;5.45;;;;;;;;;;5134931;27;20084;-81
2023/06/16 12:42:25;;;;;;;5.05;4.75;;;;;;;;;;5116398;27;20043;-79
2023/06/16 12:44:55;;;;;;;5.90;5.32;;;;;;;;;;5135176;27;20039;-79
2023/06/16 12:47:22;;;;;;;5.50;4.90;;;;;;;;;;5116698;27;20088;-80
2023/06/16 12:49:50;;;;;;;6.07;5.43;;;;;;;;;;5135227;27;20063;-79
2023/06/16 12:52:17;;;;;;;5.90;5.05;;;;;;;;;;5136333;27;20039;-81
2023/06/16 12:54:42;;;;;;;5.90;5.35;;;;;;;;;;5149119;27;20039;-79
2023/06/16 12:57:09;;;;;;;6.00;5.30;;;;;;;;;;5123204;27;20031;-79
2023/06/16 12:59:34;;;;;;;6.53;5.75;;;;;;;;;;5146993;27;20035;-80
2023/06/16 13:02:01;;;;;;;8.02;5.22;;;;;;;;;;5143965;27;20031;-80
2023/06/16 13:04:26;;;;;;;8.05;5.32;;;;;;;;;;5134332;27;20515;-81
2023/06/16 13:06:52;;;;;;;5.72;5.18;;;;;;;;;;5135016;27;20404;-78
2023/06/16 13:09:20;;;;;;;8.23;5.40;;;;;;;;;;5115649;27;20088;-81
2023/06/16 13:11:48;;;;;;;7.78;5.53;;;;;;;;;;5134313;27;20049;-80
2023/06/16 13:14:14;;;;;;;8.00;4.85;;;;;;;;;;5134156;27;20544;-79
2023/06/16 13:16:40;;;;;;;5.10;4.80;;;;;;;;;;5082026;27;20042;-80
2023/06/16 13:19:06;;;;;;;6.47;5.70;;;;;;;;;;5115825;27;20030;-81
2023/06/16 13:21:32;;;;;;;7.03;4.65;;;;;;;;;;5134131;27;20045;-78
2023/06/16 13:23:58;;;;;;;5.80;5.30;;;;;;;;;;5115652;27;20043;-80
2023/06/16 13:26:25;;;;;;;7.38;5.05;;;;;;;;;;5115667;27;20031;-81
2023/06/16 13:28:50;;;;;;;5.88;5.38;;;;;;;;;;5115898;27;20073;-81
2023/06/16 13:31:16;;;;;;;5.65;5.15;;;;;;;;;;5133603;27;20070;-81
2023/06/16 13:33:42;;;;;;;8.70;6.32;;;;;;;;;;5133456;27;20527;-80
2023/06/16 13:36:09;;;;;;;7.35;6.00;;;;;;;;;;5097987;27;20039;-80
2023/06/16 13:38:34;;;;;;;6.60;5.13;;;;;;;;;;5133293;27;20465;-81
2023/06/16 13:41:01;;;;;;;5.80;5.30;;;;;;;;;;5115608;27;20030;-81
2023/06/16 13:43:27;;;;;;;5.72;5.20;;;;;;;;;;5133738;27;20034;-82
2023/06/16 13:45:54;;;;;;;7.40;4.90;;;;;;;;;;5133199;27;20039;-80
2023/06/16 13:48:21;;;;;;;6.22;5.10;;;;;;;;;;5098765;27;20043;-80
2023/06/16 13:50:47;;;;;;;5.93;5.43;;;;;;;;;;5098612;27;20532;-79
2023/06/16 13:53:14;;;;;;;7.85;5.10;;;;;;;;;;5133584;27;20051;-81
2023/06/16 13:55:40;;;;;;;8.18;5.47;;;;;;;;;;5133342;27;20462;-80
2023/06/16 13:58:06;;;;;;;6.03;5.53;;;;;;;;;;5133298;27;20066;-81
2023/06/16 14:00:32;;;;;;;6.30;5.70;;;;;;;;;;5133200;27;20126;-81
2023/06/16 14:02:58;;;;;;;6.38;5.32;;;;;;;;;;5114945;27;20074;-79
2023/06/16 14:05:24;;;;;;;9.32;6.07;;;;;;;;;;5132988;27;20042;-81
2023/06/16 14:07:51;;;;;;;5.40;5.00;;;;;;;;;;5136908;27;20520;-81
2023/06/16 14:10:17;;;;;;;5.55;4.95;;;;;;;;;;5119143;27;20536;-80
2023/06/16 14:12:47;;;;;;;5.38;4.68;;;;;;;;;;5119911;27;20066;-81
2023/06/16 14:15:13;;;;;;;9.80;5.33;;;;;;;;;;5135065;27;20041;-79
2023/06/16 14:17:40;;;;;;;10.18;5.35;;;;;;;;;;5098021;27;20047;-80
2023/06/16 14:20:06;;;;;;;6.00;5.40;;;;;;;;;;5133013;27;20038;-81
2023/06/16 14:22:32;;;;;;;5.97;5.40;;;;;;;;;;5133405;27;20046;-80
2023/06/16 14:24:58;;;;;;;5.80;5.30;;;;;;;;;;5133941;27;20035;-80
2023/06/16 14:27:24;;;;;;;5.38;4.97;;;;;;;;;;5114817;27;20034;-80
2023/06/16 14:29:50;;;;;;;8.82;5.20;;;;;;;;;;5133318;27;20424;-81
2023/06/16 14:32:16;;;;;;;6.80;4.80;;;;;;;;;;5133513;27;20353;-79
2023/06/16 14:34:42;;;;;;;13.43;5.50;;;;;;;;;;5114689;27;20139;-81